Flight Track Log - Related Links

Times and Time Zones

All times are in EDT time to prevent confusion due to time zone crossing. See the DAL1306 flight status page for this flight to view local times or setup timezone preferences in your user account.

Time Position Orientation Groundspeed Altitude Reporting Facility
EDT Latitude Longitude Course Direction KTS MPH feet Rate Location/Type
Sat 12:19:43 PM 40.7333 -74.1167 252° West 197 227 2,100  Level New York TRACON
Sat 12:21:42 PM 40.8072 -74.2172 314° West 259 298 6,000 2,191 Climbing New York Center
Sat 12:22:00 PM 40.5970 -74.7178 258° West  Level FlightAware Approximate
Sat 12:22:41 PM 40.7739 -74.2842 237° Southwest 218 251 8,600  Level New York Center
Sat 12:23:00 PM 40.5736 -74.8585 258° West  Level FlightAware Approximate
Sat 12:23:40 PM 40.7069 -74.3600 221° Southwest 260 299 10,800  Level New York Center
Sat 12:24:00 PM 40.5545 -74.9989 252° West  Level FlightAware Approximate
Sat 12:24:40 PM 40.6772 -74.4486 246° West 293 337 11,900  Level New York Center
Sat 12:25:41 PM 40.6525 -74.5733 255° West 318 366 14,200 2,115 Climbing New York Center
Sat 12:26:42 PM 40.6325 -74.6761 256° West 329 379 16,200 2,067 Climbing New York Center
Sat 12:27:40 PM 40.6072 -74.8086 256° West 337 388 18,300 1,966 Climbing New York Center
Sat 12:28:41 PM 40.5825 -74.9192 254° West 344 396 20,100 1,770 Climbing New York Center
Sat 12:29:42 PM 40.5531 -75.0403 252° West 349 402 21,900 1,770 Climbing New York Center
Sat 12:30:43 PM 40.4889 -75.1481 232° Southwest 357 411 23,700 1,664 Climbing New York Center
Sat 12:31:41 PM 40.4203 -75.2500 229° Southwest 374 430 25,200 1,210 Climbing New York Center
Sat 12:32:42 PM 40.3425 -75.3783 232° Southwest 397 457 26,100 885 Climbing New York Center
Sat 12:33:43 PM 40.2692 -75.4933 230° Southwest 413 475 27,000 1,119 Climbing New York Center
Sat 12:34:40 PM 40.1997 -75.6136 233° Southwest 418 481 28,300 1,300 Climbing New York Center
Sat 12:35:43 PM 40.1339 -75.7419 236° Southwest 423 487 29,600 1,180 Climbing New York Center
Sat 12:36:42 PM 40.0725 -75.8625 236° Southwest 418 481 30,700 966 Climbing New York Center
Sat 12:37:41 PM 40.0083 -75.9906 237° Southwest 418 481 31,500 655 Climbing New York Center
Sat 12:38:41 PM 39.9467 -76.1106 236° Southwest 418 481 32,000 248 Climbing New York Center
Sat 12:39:42 PM 39.8750 -76.2186 229° Southwest 429 494 32,000  Level New York Center
Sat 12:40:42 PM 39.8011 -76.3319 230° Southwest 429 494 32,000 -59 Level New York Center
Sat 12:41:23 PM 39.7511 -76.4056 229° Southwest 412 474 31,900  Descending Washington Center
Sat 12:42:23 PM 39.6694 -76.5278 229° Southwest 408 470 32,000 48 Climbing Washington Center
Sat 12:43:27 PM 39.5953 -76.6397 229° Southwest 409 471 32,000  Level Washington Center
Sat 12:44:28 PM 39.5208 -76.7519 229° Southwest 409 471 32,000  Level Washington Center
Sat 12:45:32 PM 39.4472 -76.8636 230° Southwest 409 471 32,000  Level Washington Center
Sat 12:46:32 PM 39.3719 -76.9767 229° Southwest 415 478 32,000  Level Washington Center
Sat 12:47:36 PM 39.2819 -77.1142 230° Southwest 416 479 32,000  Level Washington Center
Sat 12:48:36 PM 39.2056 -77.2267 229° Southwest 416 479 32,000  Level Washington Center
Sat 12:49:41 PM 39.1292 -77.3397 229° Southwest 416 479 32,000  Level Washington Center
Sat 12:50:42 PM 39.0525 -77.4531 229° Southwest 417 480 32,000  Level Washington Center
Sat 12:51:42 PM 38.9661 -77.5792 229° Southwest 416 479 32,000  Level Washington Center
Sat 12:52:46 PM 38.8906 -77.6886 228° Southwest 416 479 32,000  Level Washington Center
Sat 12:53:47 PM 38.8108 -77.8061 229° Southwest 418 481 32,000  Level Washington Center
Sat 12:54:50 PM 38.7403 -77.9094 229° Southwest 411 473 32,000  Level Washington Center
Sat 12:55:51 PM 38.6650 -78.0183 228° Southwest 410 472 32,000  Level Washington Center
Sat 12:56:55 PM 38.5733 -78.1514 229° Southwest 413 475 32,000  Level Washington Center
Sat 12:57:56 PM 38.4961 -78.2619 228° Southwest 413 475 32,000  Level Washington Center
Sat 12:58:57 PM 38.4183 -78.3733 228° Southwest 418 481 32,000  Level Washington Center
Sat 01:00:01 PM 38.3411 -78.4850 229° Southwest 420 483 32,000  Level Washington Center
Sat 01:01:02 PM 38.2519 -78.6117 228° Southwest 420 483 32,000  Level Washington Center
Sat 01:02:05 PM 38.1758 -78.7203 228° Southwest 421 484 32,000  Level Washington Center
Sat 01:03:06 PM 38.0989 -78.8294 228° Southwest 423 487 32,000  Level Washington Center
Sat 01:04:10 PM 38.0236 -78.9372 228° Southwest 423 487 32,000  Level Washington Center
Sat 01:05:10 PM 37.9297 -79.0667 227° Southwest 424 488 32,000  Level Washington Center
Sat 01:06:14 PM 37.8522 -79.1747 228° Southwest 424 488 32,000  Level Washington Center
Sat 01:07:14 PM 37.7739 -79.2833 228° Southwest 429 494 32,000  Level Washington Center
Sat 01:08:18 PM 37.6925 -79.3947 227° Southwest 417 480 32,000  Level Washington Center
Sat 01:09:18 PM 37.6136 -79.5058 228° Southwest 419 482 32,000  Level Washington Center
Sat 01:10:22 PM 37.5183 -79.6364 227° Southwest 420 483 32,000  Level Washington Center
Sat 01:11:23 PM 37.4386 -79.7478 228° Southwest 422 486 32,000  Level Washington Center
Sat 01:12:26 PM 37.3633 -79.8500 227° Southwest 429 494 32,000  Level Washington Center
Sat 01:13:27 PM 37.2686 -79.9775 227° Southwest 427 491 32,000  Level Washington Center
Sat 01:14:31 PM 37.1906 -80.0839 227° Southwest 428 493 32,000  Level Washington Center
Sat 01:15:04 PM 37.1372 -80.1519 226° Southwest 425 489 32,000  Level Atlanta Center
Sat 01:16:04 PM 37.0553 -80.2625 227° Southwest 464 534 32,000  Level Atlanta Center
Sat 01:17:04 PM 36.9711 -80.3756 227° Southwest 451 519 32,000  Level Atlanta Center
Sat 01:18:05 PM 36.8789 -80.4967 226° Southwest 446 513 32,000  Level Atlanta Center
Sat 01:19:04 PM 36.7967 -80.6092 228° Southwest 441 507 32,000  Level Atlanta Center
Sat 01:20:04 PM 36.7181 -80.7161 227° Southwest 430 495 32,000  Level Atlanta Center
Sat 01:21:04 PM 36.6336 -80.8283 227° Southwest 435 501 32,000  Level Atlanta Center
Sat 01:22:04 PM 36.5550 -80.9297 226° Southwest 435 501 32,000  Level Atlanta Center
Sat 01:23:04 PM 36.4661 -81.0494 227° Southwest 435 501 32,000  Level Atlanta Center
Sat 01:24:04 PM 36.3853 -81.1581 227° Southwest 435 501 32,000  Level Atlanta Center
Sat 01:25:04 PM 36.3003 -81.2694 227° Southwest 435 501 32,000  Level Atlanta Center
Sat 01:26:04 PM 36.2172 -81.3778 226° Southwest 435 501 32,000  Level Atlanta Center
Sat 01:27:04 PM 36.1358 -81.4833 226° Southwest 435 501 32,000  Level Atlanta Center
Sat 01:28:04 PM 36.0528 -81.5936 227° Southwest 435 501 32,000  Level Atlanta Center
Sat 01:29:04 PM 35.9692 -81.7014 226° Southwest 435 501 32,000  Level Atlanta Center
Sat 01:30:04 PM 35.8878 -81.8064 226° Southwest 435 501 32,000  Level Atlanta Center
Sat 01:31:04 PM 35.8061 -81.9108 226° Southwest 435 501 32,000  Level Atlanta Center
Sat 01:32:04 PM 35.7225 -82.0181 226° Southwest 430 495 32,000  Level Atlanta Center
Sat 01:33:04 PM 35.6428 -82.1169 225° Southwest 435 501 32,000  Level Atlanta Center
Sat 01:34:04 PM 35.5631 -82.2211 227° Southwest 430 495 32,000  Level Atlanta Center
Sat 01:35:04 PM 35.4808 -82.3250 226° Southwest 430 495 32,000 -250 Level Atlanta Center
Sat 01:36:04 PM 35.3969 -82.4286 225° Southwest 435 501 31,500 -650 Descending Atlanta Center
Sat 01:37:04 PM 35.3147 -82.5344 226° Southwest 435 501 30,700 -850 Descending Atlanta Center
Sat 01:38:04 PM 35.2303 -82.6353 224° Southwest 435 501 29,800 -1,050 Descending Atlanta Center
Sat 01:39:04 PM 35.1439 -82.7433 226° Southwest 435 501 28,600 -1,200 Descending Atlanta Center
Sat 01:40:04 PM 35.0614 -82.8461 226° Southwest 435 501 27,400 -1,200 Descending Atlanta Center
Sat 01:41:04 PM 34.9811 -82.9461 226° Southwest 424 488 26,200 -1,300 Descending Atlanta Center
Sat 01:42:04 PM 34.8903 -83.0536 224° Southwest 419 482 24,800 -1,200 Descending Atlanta Center
Sat 01:43:04 PM 34.8178 -83.1406 225° Southwest 414 476 23,800 -900 Descending Atlanta Center
Sat 01:44:04 PM 34.7414 -83.2425 228° Southwest 414 476 23,000 -400 Descending Atlanta Center
Sat 01:45:04 PM 34.6583 -83.3367 223° Southwest 408 470 23,000 -200 Level Atlanta Center
Sat 01:46:04 PM 34.5650 -83.4133 214° Southwest 408 470 22,600 -700 Descending Atlanta Center
Sat 01:47:04 PM 34.4733 -83.4944 216° Southwest 414 476 21,600 -1,000 Descending Atlanta Center
Sat 01:48:04 PM 34.3883 -83.5781 219° Southwest 409 471 20,600 -1,000 Descending Atlanta Center
Sat 01:49:04 PM 34.3175 -83.6892 232° Southwest 388 447 19,600 -1,400 Descending Atlanta Center
Sat 01:50:04 PM 34.2406 -83.7675 220° Southwest 376 433 17,800 -2,000 Descending Atlanta Center
Sat 01:51:04 PM 34.1425 -83.8178 203° Southwest 371 427 15,600 -1,900 Descending Atlanta Center
Sat 01:52:04 PM 34.0572 -83.8758 209° Southwest 364 419 14,000 -1,794 Descending Atlanta Center
Sat 01:52:51 PM 34.0000 -83.9333 220° Southwest 348 400 12,400 -1,188 Descending Atlanta TRACON
Sat 01:53:45 PM 33.9333 -84.0000 220° Southwest 329 379 12,000 -200 Descending Atlanta TRACON
Sat 01:54:51 PM 33.8500 -84.0500 206° Southwest 302 348 12,000 -381 Level Atlanta TRACON
Sat 01:55:51 PM 33.7833 -84.1000 212° Southwest 251 289 11,200 -500 Descending Atlanta TRACON
Sat 01:56:51 PM 33.7333 -84.1500 220° Southwest 245 282 11,000 -100 Descending Atlanta TRACON
Sat 01:57:51 PM 33.7333 -84.2333 270° West 230 265 11,000  Level Atlanta TRACON
Sat 01:58:51 PM 33.7333 -84.3000 270° West 229 264 11,000 -550 Level Atlanta TRACON
Sat 01:59:51 PM 33.7333 -84.3833 270° West 236 272 9,900 -1,286 Descending Atlanta TRACON
Sat 02:00:57 PM 33.7333 -84.4667 270° West 231 266 8,300 -1,571 Descending Atlanta TRACON
Sat 02:01:57 PM 33.7333 -84.5500 270° West 231 266 6,600 -1,650 Descending Atlanta TRACON
Sat 02:02:57 PM 33.7333 -84.6167 270° West 239 275 5,000 -1,300 Descending Atlanta TRACON
Sat 02:03:57 PM 33.7333 -84.7000 270° West 225 259 4,000 -496 Descending Atlanta TRACON
Sat 02:04:58 PM 33.7333 -84.7667 270° West 203 234 4,000  Level Atlanta TRACON
Sat 02:05:58 PM 33.6833 -84.7500 164° South 195 224 4,000  Level Atlanta TRACON
Sat 02:07:04 PM 33.6500 -84.7000 129° Southeast 189 217 4,000  Level Atlanta TRACON
Sat 02:07:58 PM 33.6500 -84.6333 90° East 192 221 4,000 -429 Level Atlanta TRACON
Sat 02:09:10 PM 33.6500 -84.5667 90° East 190 219 3,100 -818 Descending Atlanta TRACON
Sat 02:10:10 PM 33.6500 -84.5167 90° East 156 180 2,200 -850 Descending Atlanta TRACON
Sat 02:11:10 PM 33.6500 -84.4667 90° East 144 166 1,400 -800 Descending Atlanta TRACON

Login

Don't have an account? Register now (free) for customized features, flight alerts, and more!